sensor_id;sensor_type;location;lat;lon;timestamp;P1;durP1;ratioP1;P2;durP2;ratioP2
8632;SDS011;4354;49.832;10.746;2022-10-23T00:01:17;5.60;;;5.03;;
8632;SDS011;4354;49.832;10.746;2022-10-23T00:03:46;6.10;;;5.50;;
8632;SDS011;4354;49.832;10.746;2022-10-23T00:06:16;5.40;;;4.87;;
8632;SDS011;4354;49.832;10.746;2022-10-23T00:08:42;4.93;;;4.43;;
8632;SDS011;4354;49.832;10.746;2022-10-23T00:11:13;5.20;;;4.47;;
8632;SDS011;4354;49.832;10.746;2022-10-23T00:13:43;5.60;;;4.73;;
8632;SDS011;4354;49.832;10.746;2022-10-23T00:16:10;5.37;;;4.30;;
8632;SDS011;4354;49.832;10.746;2022-10-23T00:18:37;4.40;;;4.00;;
8632;SDS011;4354;49.832;10.746;2022-10-23T00:21:05;7.53;;;4.23;;
8632;SDS011;4354;49.832;10.746;2022-10-23T00:23:33;6.17;;;4.40;;
8632;SDS011;4354;49.832;10.746;2022-10-23T00:26:00;6.07;;;4.80;;
8632;SDS011;4354;49.832;10.746;2022-10-23T00:28:28;7.03;;;4.80;;
8632;SDS011;4354;49.832;10.746;2022-10-23T00:30:55;5.53;;;4.60;;
8632;SDS011;4354;49.832;10.746;2022-10-23T00:33:22;4.40;;;4.00;;
8632;SDS011;4354;49.832;10.746;2022-10-23T00:35:48;4.87;;;3.63;;
8632;SDS011;4354;49.832;10.746;2022-10-23T00:38:15;4.17;;;3.47;;
8632;SDS011;4354;49.832;10.746;2022-10-23T00:40:42;3.47;;;3.17;;
8632;SDS011;4354;49.832;10.746;2022-10-23T00:43:21;3.97;;;3.60;;
8632;SDS011;4354;49.832;10.746;2022-10-23T00:45:50;4.77;;;3.10;;
8632;SDS011;4354;49.832;10.746;2022-10-23T00:48:17;6.33;;;3.57;;
8632;SDS011;4354;49.832;10.746;2022-10-23T00:50:44;3.80;;;3.50;;
8632;SDS011;4354;49.832;10.746;2022-10-23T00:53:12;4.73;;;4.10;;
8632;SDS011;4354;49.832;10.746;2022-10-23T00:55:42;5.53;;;3.80;;
8632;SDS011;4354;49.832;10.746;2022-10-23T00:58:12;4.33;;;3.93;;
8632;SDS011;4354;49.832;10.746;2022-10-23T01:00:50;4.17;;;3.77;;
8632;SDS011;4354;49.832;10.746;2022-10-23T01:03:19;5.13;;;3.60;;
8632;SDS011;4354;49.832;10.746;2022-10-23T01:08:39;3.20;;;3.00;;
8632;SDS011;4354;49.832;10.746;2022-10-23T01:11:26;3.37;;;2.93;;
8632;SDS011;4354;49.832;10.746;2022-10-23T01:24:59;5.73;;;4.20;;
8632;SDS011;4354;49.832;10.746;2022-10-23T01:27:48;6.60;;;5.93;;
8632;SDS011;4354;49.832;10.746;2022-10-23T01:30:17;5.53;;;5.03;;
8632;SDS011;4354;49.832;10.746;2022-10-23T01:32:48;4.50;;;4.10;;
8632;SDS011;4354;49.832;10.746;2022-10-23T01:35:39;8.27;;;6.23;;
8632;SDS011;4354;49.832;10.746;2022-10-23T01:38:18;12.03;;;10.10;;
8632;SDS011;4354;49.832;10.746;2022-10-23T01:40:54;6.90;;;5.83;;
8632;SDS011;4354;49.832;10.746;2022-10-23T01:43:51;3.50;;;3.03;;
8632;SDS011;4354;49.832;10.746;2022-10-23T01:46:20;3.67;;;3.17;;
8632;SDS011;4354;49.832;10.746;2022-10-23T01:48:51;3.20;;;2.87;;
8632;SDS011;4354;49.832;10.746;2022-10-23T01:51:21;2.93;;;2.63;;
8632;SDS011;4354;49.832;10.746;2022-10-23T01:53:51;4.37;;;2.30;;
8632;SDS011;4354;49.832;10.746;2022-10-23T01:56:24;2.60;;;2.40;;
8632;SDS011;4354;49.832;10.746;2022-10-23T01:58:55;3.03;;;2.73;;
8632;SDS011;4354;49.832;10.746;2022-10-23T02:01:26;2.77;;;2.57;;
8632;SDS011;4354;49.832;10.746;2022-10-23T02:03:56;2.43;;;2.23;;
8632;SDS011;4354;49.832;10.746;2022-10-23T02:06:29;2.13;;;1.97;;
8632;SDS011;4354;49.832;10.746;2022-10-23T02:08:56;2.30;;;2.10;;
8632;SDS011;4354;49.832;10.746;2022-10-23T02:11:23;2.37;;;2.20;;
8632;SDS011;4354;49.832;10.746;2022-10-23T02:13:53;2.60;;;2.40;;
8632;SDS011;4354;49.832;10.746;2022-10-23T02:24:32;1.70;;;1.50;;
8632;SDS011;4354;49.832;10.746;2022-10-23T02:27:14;2.30;;;2.10;;
8632;SDS011;4354;49.832;10.746;2022-10-23T02:29:46;1.93;;;1.73;;
8632;SDS011;4354;49.832;10.746;2022-10-23T02:32:17;2.00;;;1.90;;
8632;SDS011;4354;49.832;10.746;2022-10-23T02:34:47;2.00;;;1.60;;
8632;SDS011;4354;49.832;10.746;2022-10-23T02:37:14;2.70;;;2.10;;
8632;SDS011;4354;49.832;10.746;2022-10-23T02:39:42;3.00;;;2.80;;
8632;SDS011;4354;49.832;10.746;2022-10-23T02:42:17;5.87;;;3.37;;
8632;SDS011;4354;49.832;10.746;2022-10-23T02:50:25;3.10;;;2.80;;
8632;SDS011;4354;49.832;10.746;2022-10-23T02:53:17;2.70;;;2.50;;
8632;SDS011;4354;49.832;10.746;2022-10-23T02:58:59;5.27;;;3.90;;
8632;SDS011;4354;49.832;10.746;2022-10-23T03:01:31;7.00;;;3.70;;
8632;SDS011;4354;49.832;10.746;2022-10-23T03:04:04;5.60;;;3.97;;
8632;SDS011;4354;49.832;10.746;2022-10-23T03:06:31;6.53;;;3.93;;
8632;SDS011;4354;49.832;10.746;2022-10-23T03:09:00;8.53;;;4.20;;
8632;SDS011;4354;49.832;10.746;2022-10-23T03:11:29;5.60;;;3.40;;
8632;SDS011;4354;49.832;10.746;2022-10-23T03:13:56;7.33;;;4.13;;
8632;SDS011;4354;49.832;10.746;2022-10-23T03:16:23;4.83;;;3.70;;
8632;SDS011;4354;49.832;10.746;2022-10-23T03:18:50;4.30;;;3.77;;
8632;SDS011;4354;49.832;10.746;2022-10-23T03:21:17;7.10;;;3.60;;
8632;SDS011;4354;49.832;10.746;2022-10-23T03:23:43;8.73;;;3.50;;
8632;SDS011;4354;49.832;10.746;2022-10-23T03:26:11;8.13;;;3.70;;
8632;SDS011;4354;49.832;10.746;2022-10-23T03:28:37;4.23;;;3.43;;
8632;SDS011;4354;49.832;10.746;2022-10-23T03:31:04;4.63;;;3.20;;
8632;SDS011;4354;49.832;10.746;2022-10-23T03:33:31;3.40;;;3.07;;
8632;SDS011;4354;49.832;10.746;2022-10-23T03:35:58;7.27;;;3.87;;
8632;SDS011;4354;49.832;10.746;2022-10-23T03:38:25;5.80;;;3.13;;
8632;SDS011;4354;49.832;10.746;2022-10-23T03:40:51;4.20;;;3.23;;
8632;SDS011;4354;49.832;10.746;2022-10-23T03:43:18;4.07;;;3.33;;
8632;SDS011;4354;49.832;10.746;2022-10-23T03:45:45;3.60;;;3.20;;
8632;SDS011;4354;49.832;10.746;2022-10-23T03:48:11;11.73;;;3.50;;
8632;SDS011;4354;49.832;10.746;2022-10-23T03:50:39;4.40;;;3.30;;
8632;SDS011;4354;49.832;10.746;2022-10-23T03:53:06;6.50;;;3.73;;
8632;SDS011;4354;49.832;10.746;2022-10-23T03:55:33;6.70;;;3.40;;
8632;SDS011;4354;49.832;10.746;2022-10-23T03:57:59;9.13;;;3.93;;
8632;SDS011;4354;49.832;10.746;2022-10-23T04:00:26;5.47;;;3.60;;
8632;SDS011;4354;49.832;10.746;2022-10-23T04:02:53;7.40;;;3.40;;
8632;SDS011;4354;49.832;10.746;2022-10-23T04:05:20;7.73;;;4.03;;
8632;SDS011;4354;49.832;10.746;2022-10-23T04:07:46;5.10;;;3.77;;
8632;SDS011;4354;49.832;10.746;2022-10-23T04:10:13;6.40;;;3.20;;
8632;SDS011;4354;49.832;10.746;2022-10-23T04:12:40;7.47;;;3.50;;
8632;SDS011;4354;49.832;10.746;2022-10-23T04:15:07;6.47;;;3.20;;
8632;SDS011;4354;49.832;10.746;2022-10-23T04:17:34;6.60;;;3.43;;
8632;SDS011;4354;49.832;10.746;2022-10-23T04:20:01;10.03;;;3.50;;
8632;SDS011;4354;49.832;10.746;2022-10-23T04:22:28;10.90;;;3.57;;
8632;SDS011;4354;49.832;10.746;2022-10-23T04:24:54;13.10;;;3.53;;
8632;SDS011;4354;49.832;10.746;2022-10-23T04:27:21;11.83;;;3.37;;
8632;SDS011;4354;49.832;10.746;2022-10-23T04:29:48;5.97;;;2.87;;
8632;SDS011;4354;49.832;10.746;2022-10-23T04:32:15;3.30;;;2.90;;
8632;SDS011;4354;49.832;10.746;2022-10-23T04:34:41;3.53;;;3.03;;
8632;SDS011;4354;49.832;10.746;2022-10-23T04:37:08;7.10;;;3.87;;
8632;SDS011;4354;49.832;10.746;2022-10-23T04:39:35;9.50;;;4.47;;
8632;SDS011;4354;49.832;10.746;2022-10-23T04:42:01;10.57;;;6.57;;
8632;SDS011;4354;49.832;10.746;2022-10-23T04:44:28;11.27;;;6.57;;
8632;SDS011;4354;49.832;10.746;2022-10-23T04:46:55;16.90;;;7.20;;
8632;SDS011;4354;49.832;10.746;2022-10-23T04:49:22;21.00;;;7.10;;
8632;SDS011;4354;49.832;10.746;2022-10-23T04:51:49;13.23;;;6.10;;
8632;SDS011;4354;49.832;10.746;2022-10-23T04:54:15;8.03;;;5.13;;
8632;SDS011;4354;49.832;10.746;2022-10-23T04:56:42;17.43;;;6.50;;
8632;SDS011;4354;49.832;10.746;2022-10-23T04:59:09;6.67;;;5.43;;
8632;SDS011;4354;49.832;10.746;2022-10-23T05:01:36;4.93;;;4.43;;
8632;SDS011;4354;49.832;10.746;2022-10-23T05:04:03;11.90;;;5.17;;
8632;SDS011;4354;49.832;10.746;2022-10-23T05:06:30;9.47;;;4.43;;
8632;SDS011;4354;49.832;10.746;2022-10-23T05:08:57;6.07;;;3.87;;
8632;SDS011;4354;49.832;10.746;2022-10-23T05:11:24;11.57;;;3.40;;
8632;SDS011;4354;49.832;10.746;2022-10-23T05:13:50;4.13;;;3.20;;
8632;SDS011;4354;49.832;10.746;2022-10-23T05:16:36;5.97;;;3.50;;
8632;SDS011;4354;49.832;10.746;2022-10-23T05:19:11;6.00;;;3.50;;
8632;SDS011;4354;49.832;10.746;2022-10-23T05:21:39;6.77;;;5.43;;
8632;SDS011;4354;49.832;10.746;2022-10-23T05:24:07;8.67;;;6.13;;
8632;SDS011;4354;49.832;10.746;2022-10-23T05:26:35;10.70;;;6.07;;
8632;SDS011;4354;49.832;10.746;2022-10-23T05:29:02;6.10;;;5.40;;
8632;SDS011;4354;49.832;10.746;2022-10-23T05:31:29;5.53;;;5.00;;
8632;SDS011;4354;49.832;10.746;2022-10-23T05:33:56;6.33;;;5.50;;
8632;SDS011;4354;49.832;10.746;2022-10-23T05:36:22;7.40;;;5.57;;
8632;SDS011;4354;49.832;10.746;2022-10-23T05:38:50;7.13;;;5.00;;
8632;SDS011;4354;49.832;10.746;2022-10-23T05:41:17;7.57;;;5.47;;
8632;SDS011;4354;49.832;10.746;2022-10-23T05:43:44;7.20;;;5.03;;
8632;SDS011;4354;49.832;10.746;2022-10-23T05:46:11;6.87;;;4.47;;
8632;SDS011;4354;49.832;10.746;2022-10-23T05:48:38;5.20;;;4.70;;
8632;SDS011;4354;49.832;10.746;2022-10-23T05:51:05;5.10;;;4.40;;
8632;SDS011;4354;49.832;10.746;2022-10-23T05:53:34;6.07;;;3.87;;
8632;SDS011;4354;49.832;10.746;2022-10-23T05:56:07;6.70;;;4.23;;
8632;SDS011;4354;49.832;10.746;2022-10-23T05:58:34;5.37;;;3.93;;
8632;SDS011;4354;49.832;10.746;2022-10-23T06:01:05;4.60;;;3.80;;
8632;SDS011;4354;49.832;10.746;2022-10-23T06:03:34;4.37;;;3.47;;
8632;SDS011;4354;49.832;10.746;2022-10-23T06:06:02;4.27;;;3.20;;
8632;SDS011;4354;49.832;10.746;2022-10-23T06:08:30;4.57;;;3.50;;
8632;SDS011;4354;49.832;10.746;2022-10-23T06:10:57;4.97;;;3.07;;
8632;SDS011;4354;49.832;10.746;2022-10-23T06:13:23;3.53;;;3.23;;
8632;SDS011;4354;49.832;10.746;2022-10-23T06:15:50;3.73;;;3.30;;
8632;SDS011;4354;49.832;10.746;2022-10-23T06:18:17;3.70;;;3.37;;
8632;SDS011;4354;49.832;10.746;2022-10-23T06:20:43;5.10;;;3.60;;
8632;SDS011;4354;49.832;10.746;2022-10-23T06:23:10;6.53;;;4.97;;
8632;SDS011;4354;49.832;10.746;2022-10-23T06:25:37;6.97;;;5.40;;
8632;SDS011;4354;49.832;10.746;2022-10-23T06:28:03;7.37;;;6.63;;
8632;SDS011;4354;49.832;10.746;2022-10-23T06:30:30;7.90;;;7.10;;
8632;SDS011;4354;49.832;10.746;2022-10-23T06:32:57;8.07;;;6.63;;
8632;SDS011;4354;49.832;10.746;2022-10-23T06:35:29;8.80;;;6.57;;
8632;SDS011;4354;49.832;10.746;2022-10-23T06:37:56;8.33;;;6.30;;
8632;SDS011;4354;49.832;10.746;2022-10-23T06:40:23;6.83;;;5.40;;
8632;SDS011;4354;49.832;10.746;2022-10-23T06:42:49;6.17;;;5.57;;
8632;SDS011;4354;49.832;10.746;2022-10-23T06:45:16;6.37;;;3.80;;
8632;SDS011;4354;49.832;10.746;2022-10-23T06:47:43;4.47;;;3.43;;
8632;SDS011;4354;49.832;10.746;2022-10-23T06:50:10;4.43;;;3.40;;
8632;SDS011;4354;49.832;10.746;2022-10-23T06:52:40;3.60;;;3.30;;
8632;SDS011;4354;49.832;10.746;2022-10-23T06:55:12;3.50;;;3.20;;
8632;SDS011;4354;49.832;10.746;2022-10-23T06:57:40;3.80;;;3.50;;
8632;SDS011;4354;49.832;10.746;2022-10-23T07:00:08;4.10;;;3.40;;
8632;SDS011;4354;49.832;10.746;2022-10-23T07:02:35;3.50;;;2.83;;
8632;SDS011;4354;49.832;10.746;2022-10-23T07:05:02;3.60;;;3.30;;
8632;SDS011;4354;49.832;10.746;2022-10-23T07:07:29;3.87;;;2.80;;
8632;SDS011;4354;49.832;10.746;2022-10-23T07:09:56;4.10;;;3.10;;
8632;SDS011;4354;49.832;10.746;2022-10-23T07:12:23;3.13;;;2.47;;
8632;SDS011;4354;49.832;10.746;2022-10-23T07:14:50;4.43;;;2.77;;
8632;SDS011;4354;49.832;10.746;2022-10-23T07:17:17;3.77;;;2.63;;
8632;SDS011;4354;49.832;10.746;2022-10-23T07:19:45;3.93;;;2.70;;
8632;SDS011;4354;49.832;10.746;2022-10-23T07:22:12;3.80;;;2.40;;
8632;SDS011;4354;49.832;10.746;2022-10-23T07:24:41;4.17;;;3.20;;
8632;SDS011;4354;49.832;10.746;2022-10-23T07:27:08;5.77;;;3.77;;
8632;SDS011;4354;49.832;10.746;2022-10-23T07:29:34;5.47;;;3.90;;
8632;SDS011;4354;49.832;10.746;2022-10-23T07:32:01;4.83;;;3.07;;
8632;SDS011;4354;49.832;10.746;2022-10-23T07:34:29;4.65;;;3.20;;
8632;SDS011;4354;49.832;10.746;2022-10-23T07:36:57;4.50;;;2.65;;
8632;SDS011;4354;49.832;10.746;2022-10-23T07:39:23;5.25;;;2.47;;
8632;SDS011;4354;49.832;10.746;2022-10-23T07:41:50;3.28;;;2.50;;
8632;SDS011;4354;49.832;10.746;2022-10-23T07:44:17;2.92;;;2.67;;
8632;SDS011;4354;49.832;10.746;2022-10-23T07:46:47;4.45;;;3.00;;
8632;SDS011;4354;49.832;10.746;2022-10-23T07:49:13;3.42;;;2.90;;
8632;SDS011;4354;49.832;10.746;2022-10-23T07:51:40;2.85;;;2.55;;
8632;SDS011;4354;49.832;10.746;2022-10-23T07:54:08;5.13;;;3.20;;
8632;SDS011;4354;49.832;10.746;2022-10-23T07:56:37;3.45;;;2.33;;
8632;SDS011;4354;49.832;10.746;2022-10-23T07:59:04;5.63;;;2.80;;
8632;SDS011;4354;49.832;10.746;2022-10-23T08:01:35;5.07;;;2.58;;
8632;SDS011;4354;49.832;10.746;2022-10-23T08:04:03;3.28;;;2.17;;
8632;SDS011;4354;49.832;10.746;2022-10-23T08:06:32;3.25;;;2.42;;
8632;SDS011;4354;49.832;10.746;2022-10-23T08:09:00;3.28;;;2.50;;
8632;SDS011;4354;49.832;10.746;2022-10-23T08:11:32;2.55;;;2.35;;
8632;SDS011;4354;49.832;10.746;2022-10-23T08:14:01;4.28;;;2.60;;
8632;SDS011;4354;49.832;10.746;2022-10-23T08:16:34;4.65;;;2.22;;
8632;SDS011;4354;49.832;10.746;2022-10-23T08:19:02;3.40;;;3.00;;
8632;SDS011;4354;49.832;10.746;2022-10-23T08:21:30;5.13;;;2.75;;
8632;SDS011;4354;49.832;10.746;2022-10-23T08:23:57;4.70;;;2.47;;
8632;SDS011;4354;49.832;10.746;2022-10-23T08:26:25;3.30;;;2.60;;
8632;SDS011;4354;49.832;10.746;2022-10-23T08:28:54;2.83;;;2.63;;
8632;SDS011;4354;49.832;10.746;2022-10-23T08:31:23;5.85;;;2.67;;
8632;SDS011;4354;49.832;10.746;2022-10-23T08:33:50;3.53;;;3.15;;
8632;SDS011;4354;49.832;10.746;2022-10-23T08:36:18;4.55;;;2.95;;
8632;SDS011;4354;49.832;10.746;2022-10-23T08:38:47;4.60;;;3.30;;
8632;SDS011;4354;49.832;10.746;2022-10-23T08:46:46;2.70;;;2.35;;
8632;SDS011;4354;49.832;10.746;2022-10-23T08:52:08;1.80;;;1.70;;
8632;SDS011;4354;49.832;10.746;2022-10-23T08:54:59;2.92;;;1.80;;
8632;SDS011;4354;49.832;10.746;2022-10-23T08:57:32;4.47;;;2.10;;
8632;SDS011;4354;49.832;10.746;2022-10-23T09:00:11;3.40;;;2.10;;
8632;SDS011;4354;49.832;10.746;2022-10-23T09:02:49;3.67;;;1.83;;
8632;SDS011;4354;49.832;10.746;2022-10-23T09:05:19;2.17;;;1.63;;
8632;SDS011;4354;49.832;10.746;2022-10-23T09:13:58;1.65;;;1.48;;
8632;SDS011;4354;49.832;10.746;2022-10-23T09:19:33;4.90;;;1.80;;
8632;SDS011;4354;49.832;10.746;2022-10-23T09:22:00;3.22;;;1.80;;
8632;SDS011;4354;49.832;10.746;2022-10-23T09:24:27;3.03;;;1.70;;
8632;SDS011;4354;49.832;10.746;2022-10-23T09:26:59;3.47;;;1.50;;
8632;SDS011;4354;49.832;10.746;2022-10-23T09:29:29;2.25;;;1.42;;
8632;SDS011;4354;49.832;10.746;2022-10-23T09:32:02;1.42;;;1.30;;
8632;SDS011;4354;49.832;10.746;2022-10-23T09:34:31;2.22;;;1.58;;
8632;SDS011;4354;49.832;10.746;2022-10-23T09:37:19;2.80;;;1.40;;
8632;SDS011;4354;49.832;10.746;2022-10-23T09:40:11;2.53;;;1.15;;
8632;SDS011;4354;49.832;10.746;2022-10-23T09:42:49;2.33;;;1.35;;
8632;SDS011;4354;49.832;10.746;2022-10-23T09:45:20;1.85;;;1.27;;
8632;SDS011;4354;49.832;10.746;2022-10-23T09:47:49;1.70;;;1.23;;
8632;SDS011;4354;49.832;10.746;2022-10-23T09:50:18;1.40;;;1.13;;
8632;SDS011;4354;49.832;10.746;2022-10-23T09:52:55;1.10;;;1.00;;
8632;SDS011;4354;49.832;10.746;2022-10-23T09:55:23;1.90;;;1.15;;
8632;SDS011;4354;49.832;10.746;2022-10-23T09:57:51;1.75;;;1.20;;
8632;SDS011;4354;49.832;10.746;2022-10-23T10:00:20;2.58;;;1.17;;
8632;SDS011;4354;49.832;10.746;2022-10-23T10:02:59;2.53;;;1.40;;
8632;SDS011;4354;49.832;10.746;2022-10-23T10:11:12;1.38;;;1.10;;
8632;SDS011;4354;49.832;10.746;2022-10-23T10:13:53;2.33;;;1.38;;
8632;SDS011;4354;49.832;10.746;2022-10-23T10:16:40;3.78;;;1.05;;
8632;SDS011;4354;49.832;10.746;2022-10-23T10:19:14;1.95;;;1.30;;
8632;SDS011;4354;49.832;10.746;2022-10-23T10:22:01;4.30;;;1.10;;
8632;SDS011;4354;49.832;10.746;2022-10-23T10:24:40;2.08;;;1.00;;
8632;SDS011;4354;49.832;10.746;2022-10-23T10:32:30;1.30;;;0.95;;
8632;SDS011;4354;49.832;10.746;2022-10-23T10:35:23;1.20;;;1.10;;
8632;SDS011;4354;49.832;10.746;2022-10-23T10:43:45;1.88;;;1.23;;
8632;SDS011;4354;49.832;10.746;2022-10-23T10:46:45;1.20;;;0.90;;
8632;SDS011;4354;49.832;10.746;2022-10-23T10:55:16;5.88;;;4.25;;
8632;SDS011;4354;49.832;10.746;2022-10-23T10:57:58;2.60;;;1.70;;
8632;SDS011;4354;49.832;10.746;2022-10-23T11:00:45;2.58;;;2.38;;
8632;SDS011;4354;49.832;10.746;2022-10-23T11:05:52;2.30;;;1.40;;
8632;SDS011;4354;49.832;10.746;2022-10-23T11:08:35;1.60;;;1.50;;
8632;SDS011;4354;49.832;10.746;2022-10-23T11:11:23;3.00;;;1.50;;
8632;SDS011;4354;49.832;10.746;2022-10-23T11:13:55;5.70;;;3.25;;
8632;SDS011;4354;49.832;10.746;2022-10-23T11:16:24;3.70;;;2.00;;
8632;SDS011;4354;49.832;10.746;2022-10-23T11:21:58;2.45;;;1.58;;
8632;SDS011;4354;49.832;10.746;2022-10-23T11:24:48;2.45;;;1.02;;
8632;SDS011;4354;49.832;10.746;2022-10-23T11:27:36;1.25;;;1.10;;
8632;SDS011;4354;49.832;10.746;2022-10-23T11:31:07;2.42;;;0.90;;
8632;SDS011;4354;49.832;10.746;2022-10-23T11:38:40;1.20;;;1.10;;
8632;SDS011;4354;49.832;10.746;2022-10-23T11:41:27;3.38;;;1.10;;
8632;SDS011;4354;49.832;10.746;2022-10-23T11:43:59;1.30;;;1.20;;
8632;SDS011;4354;49.832;10.746;2022-10-23T11:46:35;2.00;;;1.10;;
8632;SDS011;4354;49.832;10.746;2022-10-23T11:49:04;3.78;;;3.38;;
8632;SDS011;4354;49.832;10.746;2022-10-23T11:51:44;2.92;;;2.30;;
8632;SDS011;4354;49.832;10.746;2022-10-23T11:56:52;5.75;;;3.33;;
8632;SDS011;4354;49.832;10.746;2022-10-23T12:04:54;3.85;;;2.25;;
8632;SDS011;4354;49.832;10.746;2022-10-23T12:07:30;3.58;;;1.33;;
8632;SDS011;4354;49.832;10.746;2022-10-23T12:10:02;2.97;;;2.53;;
8632;SDS011;4354;49.832;10.746;2022-10-23T12:12:53;5.25;;;4.75;;
8632;SDS011;4354;49.832;10.746;2022-10-23T12:15:22;3.28;;;2.97;;
8632;SDS011;4354;49.832;10.746;2022-10-23T12:17:51;1.98;;;1.88;;
8632;SDS011;4354;49.832;10.746;2022-10-23T12:25:42;4.40;;;1.90;;
8632;SDS011;4354;49.832;10.746;2022-10-23T12:28:36;2.58;;;2.38;;
8632;SDS011;4354;49.832;10.746;2022-10-23T12:34:02;3.78;;;1.45;;
8632;SDS011;4354;49.832;10.746;2022-10-23T12:39:41;2.03;;;1.13;;
8632;SDS011;4354;49.832;10.746;2022-10-23T12:42:10;1.00;;;0.90;;
8632;SDS011;4354;49.832;10.746;2022-10-23T12:45:00;1.58;;;0.98;;
8632;SDS011;4354;49.832;10.746;2022-10-23T12:47:30;2.50;;;1.80;;
8632;SDS011;4354;49.832;10.746;2022-10-23T12:49:57;1.63;;;1.08;;
8632;SDS011;4354;49.832;10.746;2022-10-23T12:52:23;2.42;;;1.50;;
8632;SDS011;4354;49.832;10.746;2022-10-23T12:54:50;1.20;;;1.10;;
8632;SDS011;4354;49.832;10.746;2022-10-23T12:57:25;4.10;;;1.10;;
8632;SDS011;4354;49.832;10.746;2022-10-23T13:00:06;3.13;;;1.95;;
8632;SDS011;4354;49.832;10.746;2022-10-23T13:02:37;3.38;;;1.80;;
8632;SDS011;4354;49.832;10.746;2022-10-23T13:05:06;2.85;;;2.15;;
8632;SDS011;4354;49.832;10.746;2022-10-23T13:07:41;6.22;;;1.80;;
8632;SDS011;4354;49.832;10.746;2022-10-23T13:10:12;1.45;;;1.27;;
8632;SDS011;4354;49.832;10.746;2022-10-23T13:12:42;0.95;;;0.95;;
8632;SDS011;4354;49.832;10.746;2022-10-23T13:15:16;3.40;;;1.50;;
8632;SDS011;4354;49.832;10.746;2022-10-23T13:22:52;1.88;;;1.00;;
8632;SDS011;4354;49.832;10.746;2022-10-23T13:25:27;1.33;;;1.23;;
8632;SDS011;4354;49.832;10.746;2022-10-23T13:30:57;3.45;;;1.20;;
8632;SDS011;4354;49.832;10.746;2022-10-23T13:33:32;3.10;;;1.40;;
8632;SDS011;4354;49.832;10.746;2022-10-23T13:38:40;4.40;;;1.40;;
8632;SDS011;4354;49.832;10.746;2022-10-23T13:41:10;2.90;;;1.45;;
8632;SDS011;4354;49.832;10.746;2022-10-23T13:43:42;2.35;;;1.70;;
8632;SDS011;4354;49.832;10.746;2022-10-23T13:46:29;2.67;;;1.52;;
8632;SDS011;4354;49.832;10.746;2022-10-23T13:48:56;2.65;;;1.50;;
8632;SDS011;4354;49.832;10.746;2022-10-23T13:51:24;5.63;;;3.08;;
8632;SDS011;4354;49.832;10.746;2022-10-23T13:53:56;3.20;;;2.40;;
8632;SDS011;4354;49.832;10.746;2022-10-23T13:56:24;3.78;;;3.47;;
8632;SDS011;4354;49.832;10.746;2022-10-23T13:58:52;6.70;;;6.15;;
8632;SDS011;4354;49.832;10.746;2022-10-23T14:03:58;2.92;;;1.67;;
8632;SDS011;4354;49.832;10.746;2022-10-23T14:06:25;3.80;;;1.70;;
8632;SDS011;4354;49.832;10.746;2022-10-23T14:08:52;1.83;;;1.33;;
8632;SDS011;4354;49.832;10.746;2022-10-23T14:11:18;3.20;;;1.45;;
8632;SDS011;4354;49.832;10.746;2022-10-23T14:13:46;3.92;;;1.40;;
8632;SDS011;4354;49.832;10.746;2022-10-23T14:16:14;1.55;;;1.42;;
8632;SDS011;4354;49.832;10.746;2022-10-23T14:18:43;3.05;;;1.48;;
8632;SDS011;4354;49.832;10.746;2022-10-23T14:21:10;4.05;;;1.70;;
8632;SDS011;4354;49.832;10.746;2022-10-23T14:23:39;2.85;;;2.00;;
8632;SDS011;4354;49.832;10.746;2022-10-23T14:26:10;1.88;;;1.30;;
8632;SDS011;4354;49.832;10.746;2022-10-23T14:28:38;3.20;;;1.77;;
8632;SDS011;4354;49.832;10.746;2022-10-23T14:31:06;1.85;;;1.60;;
8632;SDS011;4354;49.832;10.746;2022-10-23T14:33:37;2.22;;;1.58;;
8632;SDS011;4354;49.832;10.746;2022-10-23T14:36:04;1.45;;;1.35;;
8632;SDS011;4354;49.832;10.746;2022-10-23T14:38:31;2.10;;;1.90;;
8632;SDS011;4354;49.832;10.746;2022-10-23T14:40:58;2.13;;;1.77;;
8632;SDS011;4354;49.832;10.746;2022-10-23T14:43:25;2.55;;;1.35;;
8632;SDS011;4354;49.832;10.746;2022-10-23T14:45:52;3.25;;;1.63;;
8632;SDS011;4354;49.832;10.746;2022-10-23T14:48:18;2.05;;;1.83;;
8632;SDS011;4354;49.832;10.746;2022-10-23T14:50:46;1.70;;;1.60;;
8632;SDS011;4354;49.832;10.746;2022-10-23T14:53:14;2.13;;;1.70;;
8632;SDS011;4354;49.832;10.746;2022-10-23T14:55:41;3.45;;;2.28;;
8632;SDS011;4354;49.832;10.746;2022-10-23T14:58:08;2.58;;;2.20;;
8632;SDS011;4354;49.832;10.746;2022-10-23T15:00:34;5.53;;;2.33;;
8632;SDS011;4354;49.832;10.746;2022-10-23T15:03:01;2.55;;;2.30;;
8632;SDS011;4354;49.832;10.746;2022-10-23T15:05:28;4.65;;;2.42;;
8632;SDS011;4354;49.832;10.746;2022-10-23T15:07:55;2.45;;;2.25;;
8632;SDS011;4354;49.832;10.746;2022-10-23T15:10:23;3.38;;;2.53;;
8632;SDS011;4354;49.832;10.746;2022-10-23T15:12:50;3.40;;;2.42;;
8632;SDS011;4354;49.832;10.746;2022-10-23T15:15:16;2.50;;;2.30;;
8632;SDS011;4354;49.832;10.746;2022-10-23T15:17:43;2.17;;;1.98;;
8632;SDS011;4354;49.832;10.746;2022-10-23T15:20:10;3.67;;;3.33;;
8632;SDS011;4354;49.832;10.746;2022-10-23T15:22:37;3.58;;;3.25;;
8632;SDS011;4354;49.832;10.746;2022-10-23T15:25:04;3.35;;;3.05;;
8632;SDS011;4354;49.832;10.746;2022-10-23T15:27:31;4.97;;;3.55;;
8632;SDS011;4354;49.832;10.746;2022-10-23T15:29:57;6.97;;;4.13;;
8632;SDS011;4354;49.832;10.746;2022-10-23T15:32:24;4.20;;;3.80;;
8632;SDS011;4354;49.832;10.746;2022-10-23T15:34:51;6.32;;;5.30;;
8632;SDS011;4354;49.832;10.746;2022-10-23T15:37:18;6.72;;;5.60;;
8632;SDS011;4354;49.832;10.746;2022-10-23T15:39:45;7.25;;;6.20;;
8632;SDS011;4354;49.832;10.746;2022-10-23T15:42:12;5.75;;;5.15;;
8632;SDS011;4354;49.832;10.746;2022-10-23T15:44:39;7.10;;;5.43;;
8632;SDS011;4354;49.832;10.746;2022-10-23T15:47:06;7.70;;;6.05;;
8632;SDS011;4354;49.832;10.746;2022-10-23T15:49:33;7.57;;;5.80;;
8632;SDS011;4354;49.832;10.746;2022-10-23T15:51:59;7.07;;;6.25;;
8632;SDS011;4354;49.832;10.746;2022-10-23T15:54:27;8.15;;;5.63;;
8632;SDS011;4354;49.832;10.746;2022-10-23T15:56:58;7.97;;;5.75;;
8632;SDS011;4354;49.832;10.746;2022-10-23T15:59:25;6.68;;;5.93;;
8632;SDS011;4354;49.832;10.746;2022-10-23T16:01:52;5.50;;;4.72;;
8632;SDS011;4354;49.832;10.746;2022-10-23T16:04:21;4.20;;;3.80;;
8632;SDS011;4354;49.832;10.746;2022-10-23T16:06:47;2.70;;;2.50;;
8632;SDS011;4354;49.832;10.746;2022-10-23T16:09:14;3.35;;;2.28;;
8632;SDS011;4354;49.832;10.746;2022-10-23T16:11:42;3.58;;;2.53;;
8632;SDS011;4354;49.832;10.746;2022-10-23T16:14:13;3.83;;;3.10;;
8632;SDS011;4354;49.832;10.746;2022-10-23T16:16:41;5.78;;;4.30;;
8632;SDS011;4354;49.832;10.746;2022-10-23T16:19:08;7.05;;;5.70;;
8632;SDS011;4354;49.832;10.746;2022-10-23T16:21:36;6.75;;;5.22;;
8632;SDS011;4354;49.832;10.746;2022-10-23T16:24:03;5.20;;;3.90;;
8632;SDS011;4354;49.832;10.746;2022-10-23T16:26:31;4.97;;;3.13;;
8632;SDS011;4354;49.832;10.746;2022-10-23T16:29:00;5.88;;;3.95;;
8632;SDS011;4354;49.832;10.746;2022-10-23T16:31:28;5.50;;;3.50;;
8632;SDS011;4354;49.832;10.746;2022-10-23T16:33:56;2.67;;;2.47;;
8632;SDS011;4354;49.832;10.746;2022-10-23T16:36:24;2.78;;;2.53;;
8632;SDS011;4354;49.832;10.746;2022-10-23T16:38:51;4.10;;;2.80;;
8632;SDS011;4354;49.832;10.746;2022-10-23T16:41:18;4.63;;;3.30;;
8632;SDS011;4354;49.832;10.746;2022-10-23T16:43:44;3.13;;;2.67;;
8632;SDS011;4354;49.832;10.746;2022-10-23T16:46:12;3.00;;;2.42;;
8632;SDS011;4354;49.832;10.746;2022-10-23T16:48:41;2.75;;;2.55;;
8632;SDS011;4354;49.832;10.746;2022-10-23T16:51:09;7.80;;;2.70;;
8632;SDS011;4354;49.832;10.746;2022-10-23T16:53:38;2.95;;;2.72;;
8632;SDS011;4354;49.832;10.746;2022-10-23T16:56:05;3.10;;;2.80;;
8632;SDS011;4354;49.832;10.746;2022-10-23T16:58:33;3.33;;;2.88;;
8632;SDS011;4354;49.832;10.746;2022-10-23T17:01:02;3.28;;;2.97;;
8632;SDS011;4354;49.832;10.746;2022-10-23T17:03:35;5.70;;;3.30;;
8632;SDS011;4354;49.832;10.746;2022-10-23T17:06:03;3.22;;;2.92;;
8632;SDS011;4354;49.832;10.746;2022-10-23T17:08:36;4.60;;;3.05;;
8632;SDS011;4354;49.832;10.746;2022-10-23T17:11:06;7.00;;;5.88;;
8632;SDS011;4354;49.832;10.746;2022-10-23T17:13:42;5.22;;;3.60;;